createdAt,value
2023-03-01T00:01:24.119Z,24.25
2023-03-01T00:05:24.165Z,24.25
2023-03-01T00:09:24.232Z,24.25
2023-03-01T00:13:24.349Z,24.23
2023-03-01T00:17:24.458Z,24.23
2023-03-01T00:21:24.545Z,24.23
2023-03-01T00:25:24.598Z,24.23
2023-03-01T00:29:24.662Z,24.24
2023-03-01T00:33:24.803Z,24.21
2023-03-01T00:37:24.779Z,24.21
2023-03-01T00:41:24.878Z,24.23
2023-03-01T00:45:24.940Z,24.21
2023-03-01T00:49:25.041Z,24.20
2023-03-01T00:53:25.122Z,24.20
2023-03-01T00:57:25.158Z,24.17
2023-03-01T01:01:25.307Z,24.18
2023-03-01T01:05:25.331Z,24.20
2023-03-01T01:09:25.432Z,24.18
2023-03-01T01:13:25.474Z,24.18
2023-03-01T01:17:25.570Z,24.18
2023-03-01T01:21:25.645Z,24.17
2023-03-01T01:25:25.745Z,24.18
2023-03-01T01:29:25.844Z,24.16
2023-03-01T01:33:26.012Z,24.14
2023-03-01T01:37:26.034Z,24.14
2023-03-01T01:41:26.149Z,24.17
2023-03-01T01:45:26.223Z,24.17
2023-03-01T01:49:26.306Z,24.14
2023-03-01T01:53:26.483Z,24.16
2023-03-01T01:57:26.508Z,24.14
2023-03-01T02:01:26.639Z,24.14
2023-03-01T02:05:26.683Z,24.11
2023-03-01T02:09:26.867Z,24.13
2023-03-01T02:13:26.955Z,24.13
2023-03-01T02:17:27.056Z,24.11
2023-03-01T02:21:27.161Z,24.11
2023-03-01T02:25:27.266Z,24.11
2023-03-01T02:29:27.490Z,24.13
2023-03-01T02:33:27.478Z,24.11
2023-03-01T02:37:27.597Z,24.10
2023-03-01T02:41:27.706Z,24.08
2023-03-01T02:45:27.788Z,24.10
2023-03-01T02:49:27.933Z,24.08
2023-03-01T02:53:28.013Z,24.07
2023-03-01T02:57:28.146Z,24.10
2023-03-01T03:01:28.263Z,24.07
2023-03-01T03:05:28.394Z,24.06
2023-03-01T03:09:28.505Z,24.07
2023-03-01T03:13:28.625Z,24.06
2023-03-01T03:17:28.767Z,24.08
2023-03-01T03:21:28.832Z,24.08
2023-03-01T03:25:28.994Z,24.06
2023-03-01T03:29:29.142Z,24.06
2023-03-01T03:33:29.271Z,24.06
2023-03-01T03:37:29.351Z,24.06
2023-03-01T03:41:29.560Z,24.04
2023-03-01T03:45:29.617Z,24.04
2023-03-01T03:49:29.750Z,24.04
2023-03-01T03:53:29.902Z,24.04
2023-03-01T03:57:30.052Z,24.04
2023-03-01T04:01:30.215Z,24.01
2023-03-01T04:05:30.316Z,24.01
2023-03-01T04:09:30.487Z,24.01
2023-03-01T04:13:30.603Z,24.01
2023-03-01T04:17:30.772Z,24.03
2023-03-01T04:21:30.885Z,24.01
2023-03-01T04:25:31.057Z,24.01
2023-03-01T04:29:31.250Z,24.00
2023-03-01T04:33:31.366Z,24.01
2023-03-01T04:37:31.484Z,24.00
2023-03-01T04:41:31.630Z,24.00
2023-03-01T04:45:31.830Z,24.01
2023-03-01T04:49:31.965Z,24.00
2023-03-01T04:53:32.136Z,24.01
2023-03-01T04:57:32.246Z,23.99
2023-03-01T05:01:32.423Z,23.99
2023-03-01T05:05:32.560Z,24.00
2023-03-01T05:09:32.734Z,23.99
2023-03-01T05:13:32.869Z,23.99
2023-03-01T05:17:33.029Z,23.96
2023-03-01T05:21:33.148Z,23.99
2023-03-01T05:25:33.304Z,23.96
2023-03-01T05:29:33.925Z,23.96
2023-03-01T05:33:33.597Z,23.96
2023-03-01T05:37:33.775Z,23.94
2023-03-01T05:41:33.952Z,23.96
2023-03-01T05:45:34.093Z,23.93
2023-03-01T05:49:34.276Z,23.94
2023-03-01T05:53:34.467Z,23.93
2023-03-01T05:57:34.600Z,23.96
2023-03-01T06:01:34.789Z,23.93
2023-03-01T06:05:35.015Z,23.93
2023-03-01T06:09:35.147Z,23.94
2023-03-01T06:13:35.304Z,23.93
2023-03-01T06:17:35.525Z,23.94
2023-03-01T06:21:35.671Z,23.94
2023-03-01T06:25:35.861Z,23.94
2023-03-01T06:29:36.013Z,23.97
2023-03-01T06:33:36.221Z,23.94
2023-03-01T06:37:36.373Z,23.93
2023-03-01T06:41:36.939Z,23.94
2023-03-01T06:45:36.702Z,23.96
2023-03-01T06:49:38.454Z,23.97
2023-03-01T06:53:37.450Z,23.97
2023-03-01T06:57:37.434Z,23.99
2023-03-01T07:01:37.480Z,23.97
2023-03-01T07:05:37.453Z,24.01
2023-03-01T07:09:37.632Z,24.04
2023-03-01T07:13:37.773Z,24.03
2023-03-01T07:17:37.895Z,24.04
2023-03-01T07:21:37.994Z,24.07
2023-03-01T07:25:38.107Z,24.11
2023-03-01T07:29:38.228Z,24.10
2023-03-01T07:33:38.301Z,24.13
2023-03-01T07:37:38.463Z,24.10
2023-03-01T07:41:38.553Z,24.13
2023-03-01T07:45:38.996Z,24.10
2023-03-01T07:49:38.999Z,24.16
2023-03-01T07:53:38.980Z,24.17
2023-03-01T07:57:38.994Z,24.24
2023-03-01T08:01:39.051Z,24.27
2023-03-01T08:05:39.476Z,24.31
2023-03-01T08:09:39.463Z,24.35
2023-03-01T08:13:39.296Z,24.39
2023-03-01T08:17:39.461Z,24.47
2023-03-01T08:21:39.981Z,24.55
2023-03-01T08:25:39.876Z,24.67
2023-03-01T08:29:39.970Z,24.68
2023-03-01T08:33:39.856Z,24.68
2023-03-01T08:37:39.964Z,24.68
2023-03-01T08:41:40.002Z,24.68
2023-03-01T08:45:40.016Z,24.65
2023-03-01T08:49:39.925Z,24.68
2023-03-01T08:53:39.962Z,24.67
2023-03-01T08:57:39.943Z,24.68
2023-03-01T09:01:39.984Z,24.79
2023-03-01T09:05:39.925Z,25.53
2023-03-01T09:09:39.956Z,26.60
2023-03-01T09:13:41.364Z,27.95
2023-03-01T09:17:39.867Z,28.93
2023-03-01T09:21:41.270Z,29.60
2023-03-01T09:25:39.748Z,30.05
2023-03-01T09:29:40.009Z,30.29
2023-03-01T09:33:39.499Z,30.05
2023-03-01T09:37:39.546Z,27.94
2023-03-01T09:41:40.037Z,27.65
2023-03-01T09:45:39.844Z,28.39
2023-03-01T09:49:40.009Z,28.55
2023-03-01T09:53:40.512Z,28.38
2023-03-01T09:57:40.525Z,28.18
2023-03-01T10:01:40.189Z,27.92
2023-03-01T10:05:40.319Z,27.61
2023-03-01T10:09:40.539Z,27.23
2023-03-01T10:13:41.006Z,26.95
2023-03-01T10:17:40.628Z,26.73
2023-03-01T10:21:40.597Z,26.49
2023-03-01T10:25:43.419Z,26.34
2023-03-01T10:29:40.553Z,26.15
2023-03-01T10:33:40.497Z,26.01
2023-03-01T10:37:40.432Z,25.87
2023-03-01T10:41:40.516Z,25.84
2023-03-01T10:45:40.534Z,25.79
2023-03-01T10:49:40.542Z,25.81
2023-03-01T10:53:40.300Z,25.70
2023-03-01T10:57:42.545Z,25.60
2023-03-01T11:01:40.328Z,25.54
2023-03-01T11:05:40.281Z,25.59
2023-03-01T11:09:40.275Z,25.56
2023-03-01T11:13:40.253Z,25.56
2023-03-01T11:17:53.171Z,25.59
2023-03-01T11:21:41.142Z,25.56
2023-03-01T11:25:40.085Z,25.56
2023-03-01T11:29:48.413Z,25.53
2023-03-01T11:33:41.061Z,25.53
2023-03-01T11:37:40.065Z,25.60
2023-03-01T11:41:40.129Z,25.61
2023-03-01T11:45:40.565Z,25.63
2023-03-01T11:49:40.299Z,25.61
2023-03-01T11:53:40.576Z,25.63
2023-03-01T11:57:43.881Z,25.63
2023-03-01T12:01:42.437Z,25.66
2023-03-01T12:05:40.604Z,25.64
2023-03-01T12:09:40.081Z,25.66
2023-03-01T12:13:40.097Z,25.67
2023-03-01T12:17:39.949Z,25.71
2023-03-01T12:21:39.881Z,25.71
2023-03-01T12:25:39.812Z,25.83
2023-03-01T12:29:40.071Z,25.85
2023-03-01T12:33:40.073Z,25.90
2023-03-01T12:37:39.696Z,25.94
2023-03-01T12:41:39.698Z,25.91
2023-03-01T12:45:39.871Z,25.92
2023-03-01T12:49:40.002Z,25.94
2023-03-01T12:53:40.180Z,25.92
2023-03-01T12:57:40.296Z,25.94
2023-03-01T13:01:40.598Z,25.95
2023-03-01T13:05:40.608Z,25.94
2023-03-01T13:09:40.685Z,25.92
2023-03-01T13:13:40.873Z,25.92
2023-03-01T13:17:41.042Z,25.91
2023-03-01T13:21:41.128Z,25.90
2023-03-01T13:25:43.063Z,25.91
2023-03-01T13:29:41.275Z,25.88
2023-03-01T13:33:41.361Z,25.88
2023-03-01T13:37:41.348Z,25.85
2023-03-01T13:41:41.421Z,25.87
2023-03-01T13:45:41.622Z,25.84
2023-03-01T13:49:46.554Z,25.83
2023-03-01T13:53:42.503Z,25.81
2023-03-01T13:57:41.568Z,25.80
2023-03-01T14:01:43.673Z,25.80
2023-03-01T14:05:41.473Z,25.79
2023-03-01T14:09:41.504Z,25.71
2023-03-01T14:13:41.449Z,25.70
2023-03-01T14:17:41.452Z,25.70
2023-03-01T14:21:41.455Z,25.70
2023-03-01T14:25:41.410Z,25.69
2023-03-01T14:29:41.431Z,25.70
2023-03-01T14:33:41.387Z,25.66
2023-03-01T14:37:41.346Z,25.70
2023-03-01T14:41:41.612Z,25.66
2023-03-01T14:45:41.282Z,25.64
2023-03-01T14:49:41.261Z,25.64
2023-03-01T14:53:50.611Z,25.64
2023-03-01T14:57:42.307Z,25.61
2023-03-01T15:01:41.304Z,25.63
2023-03-01T15:05:41.235Z,25.59
2023-03-01T15:09:41.235Z,25.59
2023-03-01T15:13:41.232Z,25.57
2023-03-01T15:17:41.212Z,25.56
2023-03-01T15:21:41.182Z,25.53
2023-03-01T15:25:41.157Z,25.54
2023-03-01T15:29:41.240Z,25.51
2023-03-01T15:33:41.224Z,25.50
2023-03-01T15:37:41.303Z,25.50
2023-03-01T15:41:41.366Z,25.49
2023-03-01T15:46:08.892Z,25.50
2023-03-01T15:50:08.781Z,25.51
2023-03-01T15:54:08.706Z,25.50
2023-03-01T15:58:08.663Z,25.49
2023-03-01T16:02:08.588Z,25.47
2023-03-01T16:06:08.543Z,25.46
2023-03-01T16:10:08.471Z,25.47
2023-03-01T16:14:08.514Z,25.46
2023-03-01T16:18:08.487Z,25.47
2023-03-01T16:22:08.438Z,25.43
2023-03-01T16:26:08.478Z,25.44
2023-03-01T16:30:08.474Z,25.43
2023-03-01T16:34:08.418Z,25.43
2023-03-01T16:38:08.448Z,25.41
2023-03-01T16:42:08.465Z,25.39
2023-03-01T16:46:08.511Z,25.34
2023-03-01T16:50:08.459Z,25.33
2023-03-01T16:54:08.495Z,25.33
2023-03-01T16:58:08.467Z,25.30
2023-03-01T17:02:08.467Z,25.33
2023-03-01T17:06:08.497Z,25.30
2023-03-01T17:10:08.481Z,25.29
2023-03-01T17:14:08.432Z,25.29
2023-03-01T17:18:08.499Z,25.29
2023-03-01T17:22:08.633Z,25.30
2023-03-01T17:26:08.753Z,25.30
2023-03-01T17:30:10.581Z,25.29
2023-03-01T17:34:08.963Z,25.29
2023-03-01T17:38:09.082Z,25.26
2023-03-01T17:42:09.210Z,25.22
2023-03-01T17:46:09.358Z,25.25
2023-03-01T17:50:09.470Z,25.22
2023-03-01T17:54:09.629Z,25.22
2023-03-01T17:58:09.791Z,25.20
2023-03-01T18:02:09.929Z,25.20
2023-03-01T18:06:10.141Z,25.16
2023-03-01T18:10:10.228Z,25.15
2023-03-01T18:14:10.379Z,25.13
2023-03-01T18:18:10.580Z,25.13
2023-03-01T18:22:10.759Z,25.09
2023-03-01T18:26:10.920Z,25.08
2023-03-01T18:30:11.069Z,25.10
2023-03-01T18:34:11.236Z,25.09
2023-03-01T18:38:11.401Z,25.09
2023-03-01T18:42:11.626Z,25.08
2023-03-01T18:46:11.832Z,25.05
2023-03-01T18:50:11.948Z,25.06
2023-03-01T18:54:12.144Z,25.05
2023-03-01T18:58:12.292Z,25.05
2023-03-01T19:02:12.579Z,25.03
2023-03-01T19:06:12.749Z,25.00
2023-03-01T19:10:12.977Z,25.00
2023-03-01T19:14:13.161Z,24.98
2023-03-01T19:18:13.346Z,24.98
2023-03-01T19:22:13.605Z,24.98
2023-03-01T19:26:13.799Z,24.96
2023-03-01T19:30:14.028Z,24.93
2023-03-01T19:34:14.300Z,24.95
2023-03-01T19:38:14.489Z,24.92
2023-03-01T19:42:14.755Z,24.93
2023-03-01T19:46:15.065Z,24.92
2023-03-01T19:50:15.205Z,24.90
2023-03-01T19:54:15.438Z,24.88
2023-03-01T19:58:15.722Z,24.88
2023-03-01T20:02:15.966Z,24.85
2023-03-01T20:06:16.205Z,24.85
2023-03-01T20:10:16.458Z,24.83
2023-03-01T20:14:16.722Z,24.83
2023-03-01T20:18:16.661Z,24.81
2023-03-01T20:22:17.746Z,24.82
2023-03-01T20:26:16.655Z,24.81
2023-03-01T20:30:16.626Z,24.79
2023-03-01T20:34:16.631Z,24.79
2023-03-01T20:38:16.854Z,24.78
2023-03-01T20:42:16.794Z,24.78
2023-03-01T20:46:16.872Z,24.77
2023-03-01T20:50:16.807Z,24.74
2023-03-01T20:54:16.785Z,24.75
2023-03-01T20:58:16.765Z,24.74
2023-03-01T21:02:16.758Z,24.72
2023-03-01T21:06:16.786Z,24.72
2023-03-01T21:10:16.848Z,24.71
2023-03-01T21:14:16.718Z,24.69
2023-03-01T21:18:16.680Z,24.69
2023-03-01T21:22:16.644Z,24.67
2023-03-01T21:26:16.619Z,24.68
2023-03-01T21:30:16.636Z,24.67
2023-03-01T21:34:16.756Z,24.67
2023-03-01T21:38:16.773Z,24.67
2023-03-01T21:42:16.819Z,24.65
2023-03-01T21:46:16.833Z,24.62
2023-03-01T21:50:16.838Z,24.65
2023-03-01T21:54:16.965Z,24.61
2023-03-01T21:58:16.918Z,24.61
2023-03-01T22:02:16.927Z,24.59
2023-03-01T22:06:18.203Z,24.59
2023-03-01T22:10:16.992Z,24.61
2023-03-01T22:14:17.061Z,24.57
2023-03-01T22:18:17.247Z,24.58
2023-03-01T22:22:17.534Z,24.57
2023-03-01T22:26:17.782Z,24.57
2023-03-01T22:30:18.018Z,24.52
2023-03-01T22:34:18.352Z,24.52
2023-03-01T22:38:18.503Z,24.52
2023-03-01T22:42:18.767Z,24.55
2023-03-01T22:46:19.147Z,24.52
2023-03-01T22:50:19.264Z,24.50
2023-03-01T22:54:19.471Z,24.51
2023-03-01T22:58:19.639Z,24.51
2023-03-01T23:02:20.088Z,24.50
2023-03-01T23:06:20.104Z,24.48
2023-03-01T23:10:20.293Z,24.47
2023-03-01T23:14:20.470Z,24.46
2023-03-01T23:18:20.591Z,24.46
2023-03-01T23:22:20.750Z,24.46
2023-03-01T23:26:21.184Z,24.46
2023-03-01T23:30:21.004Z,24.46
2023-03-01T23:34:21.136Z,24.42
2023-03-01T23:38:21.246Z,24.44
2023-03-01T23:42:21.386Z,24.41
2023-03-01T23:46:21.670Z,24.41
2023-03-01T23:50:21.869Z,24.39
2023-03-01T23:54:21.765Z,24.38
2023-03-01T23:58:21.962Z,24.39
